Terminal Aerodrome Forecast
Issued by NWS Brownsville, TX

Home | Current Version | Previous Version | Text Only | Print | Product List | Glossary On
Versions: 1 2 3 4 5 6 7 8 9 10 11 12 13 14 15 16 17 18 19 20 21 22 23 24 25 26 27 28
000
FTUS44 KBRO 241356 AAB
TAFMFE
TAF AMD
KMFE 241356Z 2414/2512 18006KT P6SM VCSH SCT009 BKN120
      TEMPO 2414/2417 BKN009
     FM241800 15020G25KT P6SM SCT050
     FM250600 14015KT P6SM BKN025=

USA.gov is the U.S. government's official web portal to all federal, state and local government web resources and services.